Time;durP1;ratioP1;P1;durP2;ratioP2;P2;SDS_P1;SDS_P2;PMS_P1;PMS_P2;Temp;Humidity;BMP_temperature;BMP_pressure;BME280_temperature;BME280_humidity;BME280_pressure;Samples;Min_cycle;Max_cycle;Signal;HPM_P1;HPM_P2
2023/05/04 00:03:32;;;;;;;13.82;7.72;;;;;;;;;;10091329;23;20101;-89
2023/05/04 00:07:35;;;;;;;14.45;8.10;;;;;;;;;;10091284;23;20049;-89
2023/05/04 00:11:40;;;;;;;14.73;7.97;;;;;;;;;;10090962;23;20542;-87
2023/05/04 00:15:42;;;;;;;16.27;7.50;;;;;;;;;;10091241;23;20085;-89
2023/05/04 00:19:46;;;;;;;14.30;6.80;;;;;;;;;;10091078;23;20463;-86
2023/05/04 00:23:49;;;;;;;13.70;7.25;;;;;;;;;;10070741;23;20030;-88
2023/05/04 00:27:53;;;;;;;15.55;8.25;;;;;;;;;;10096085;23;20606;-86
2023/05/04 00:31:56;;;;;;;18.75;9.27;;;;;;;;;;10093435;23;20101;-89
2023/05/04 00:35:59;;;;;;;15.75;8.23;;;;;;;;;;10093739;23;20158;-89
2023/05/04 00:40:02;;;;;;;15.25;8.43;;;;;;;;;;10092640;23;20026;-85
2023/05/04 00:44:06;;;;;;;18.38;8.25;;;;;;;;;;10093031;23;20452;-87
2023/05/04 00:48:09;;;;;;;19.08;9.02;;;;;;;;;;10092463;23;20073;-88
2023/05/04 00:52:14;;;;;;;16.27;8.38;;;;;;;;;;10090949;23;20049;-86
2023/05/04 00:56:17;;;;;;;13.57;7.88;;;;;;;;;;10090831;23;20030;-85
2023/05/04 01:00:22;;;;;;;16.25;7.78;;;;;;;;;;10092676;23;20347;-85
2023/05/04 01:04:25;;;;;;;11.70;7.05;;;;;;;;;;10094923;23;20022;-90
2023/05/04 01:08:32;;;;;;;17.30;8.52;;;;;;;;;;10090802;23;20018;-89
2023/05/04 01:12:39;;;;;;;19.85;8.85;;;;;;;;;;10091521;23;20351;-87
2023/05/04 01:16:43;;;;;;;18.30;9.15;;;;;;;;;;10106656;23;20018;-90
2023/05/04 01:20:46;;;;;;;16.55;9.70;;;;;;;;;;10090871;23;20098;-87
2023/05/04 01:24:51;;;;;;;20.52;9.40;;;;;;;;;;10091614;23;20094;-89
2023/05/04 01:29:02;;;;;;;13.45;8.23;;;;;;;;;;10090247;23;20054;-87
2023/05/04 01:33:05;;;;;;;14.32;8.45;;;;;;;;;;10107149;23;20031;-86
2023/05/04 01:37:08;;;;;;;14.60;8.40;;;;;;;;;;10090443;23;20089;-90
2023/05/04 01:41:13;;;;;;;15.18;8.15;;;;;;;;;;10090475;23;20093;-88
2023/05/04 01:45:16;;;;;;;19.73;9.68;;;;;;;;;;10090873;23;20018;-89
2023/05/04 01:49:19;;;;;;;18.05;8.50;;;;;;;;;;10092453;23;20066;-90
2023/05/04 01:53:21;;;;;;;15.40;9.25;;;;;;;;;;10095021;23;20022;-92
2023/05/04 01:57:26;;;;;;;15.43;8.88;;;;;;;;;;10094270;23;20463;-89
2023/05/04 02:01:29;;;;;;;18.50;10.57;;;;;;;;;;10093596;23;20026;-88
2023/05/04 02:05:31;;;;;;;17.92;9.68;;;;;;;;;;10093730;23;20440;-88
2023/05/04 02:09:35;;;;;;;17.95;10.48;;;;;;;;;;10093306;23;20028;-87
2023/05/04 02:13:40;;;;;;;31.27;11.55;;;;;;;;;;10092281;23;20460;-87
2023/05/04 02:17:43;;;;;;;24.45;11.95;;;;;;;;;;10093455;23;20435;-87
2023/05/04 02:21:46;;;;;;;22.63;12.30;;;;;;;;;;10094114;23;20430;-86
2023/05/04 02:25:49;;;;;;;25.13;12.68;;;;;;;;;;10093444;23;20028;-87
2023/05/04 02:29:53;;;;;;;23.77;12.43;;;;;;;;;;10093033;23;20033;-87
2023/05/04 02:33:56;;;;;;;21.42;11.57;;;;;;;;;;10093103;23;20435;-85
2023/05/04 02:37:59;;;;;;;24.38;13.00;;;;;;;;;;10092843;23;20027;-88
2023/05/04 02:42:02;;;;;;;24.20;13.05;;;;;;;;;;10093140;23;20023;-88
2023/05/04 02:46:06;;;;;;;22.58;12.38;;;;;;;;;;10092831;23;20022;-89
2023/05/04 02:50:09;;;;;;;25.45;12.48;;;;;;;;;;10067201;23;20026;-89
2023/05/04 02:54:12;;;;;;;24.60;13.13;;;;;;;;;;10093416;23;20018;-87
2023/05/04 02:58:15;;;;;;;26.50;12.65;;;;;;;;;;10092695;23;20134;-85
2023/05/04 03:02:19;;;;;;;26.40;13.35;;;;;;;;;;10092132;23;20097;-89
2023/05/04 03:06:22;;;;;;;30.05;13.15;;;;;;;;;;10092879;23;20018;-88
2023/05/04 03:10:25;;;;;;;28.35;13.32;;;;;;;;;;10092420;23;20074;-87
2023/05/04 03:14:28;;;;;;;28.25;13.25;;;;;;;;;;10092868;23;20046;-88
2023/05/04 03:18:33;;;;;;;28.38;14.10;;;;;;;;;;10092532;23;20053;-89
2023/05/04 03:22:36;;;;;;;25.67;13.30;;;;;;;;;;10092245;23;20042;-89
2023/05/04 03:26:38;;;;;;;22.23;12.93;;;;;;;;;;10092121;23;20026;-88
2023/05/04 03:30:41;;;;;;;26.90;14.07;;;;;;;;;;10092068;23;20029;-86
2023/05/04 03:34:46;;;;;;;27.40;15.23;;;;;;;;;;10091842;23;20029;-86
2023/05/04 03:38:48;;;;;;;26.83;13.57;;;;;;;;;;10092122;23;20506;-89
2023/05/04 03:42:52;;;;;;;25.90;13.38;;;;;;;;;;10092059;23;20019;-88
2023/05/04 03:46:55;;;;;;;25.00;15.45;;;;;;;;;;10091872;23;20070;-88
2023/05/04 03:50:59;;;;;;;25.95;12.35;;;;;;;;;;10091776;23;20028;-86
2023/05/04 03:55:02;;;;;;;20.30;11.10;;;;;;;;;;10091616;23;20022;-86
2023/05/04 03:59:05;;;;;;;22.83;11.88;;;;;;;;;;10090562;23;20026;-88
2023/05/04 04:03:08;;;;;;;20.27;11.20;;;;;;;;;;10091147;23;20485;-87
2023/05/04 04:07:12;;;;;;;19.30;10.73;;;;;;;;;;10091153;23;20089;-85
2023/05/04 04:11:15;;;;;;;20.23;11.05;;;;;;;;;;10091044;23;20026;-87
2023/05/04 04:15:18;;;;;;;17.50;10.30;;;;;;;;;;10090313;23;20080;-86
2023/05/04 04:19:21;;;;;;;20.95;10.70;;;;;;;;;;10090888;23;20022;-86
2023/05/04 04:23:26;;;;;;;19.20;10.05;;;;;;;;;;10090566;23;20144;-86
2023/05/04 04:27:28;;;;;;;24.75;11.95;;;;;;;;;;10090581;23;20022;-85
2023/05/04 04:31:32;;;;;;;77.38;26.50;;;;;;;;;;10090860;23;20089;-87
2023/05/04 04:35:37;;;;;;;17.20;9.52;;;;;;;;;;10090525;23;20101;-84
2023/05/04 04:39:41;;;;;;;17.50;8.52;;;;;;;;;;10090285;23;20456;-85
2023/05/04 04:43:45;;;;;;;30.30;16.38;;;;;;;;;;10090322;23;20065;-87
2023/05/04 04:47:48;;;;;;;35.17;16.75;;;;;;;;;;10090641;23;20018;-86
2023/05/04 04:51:51;;;;;;;103.80;45.20;;;;;;;;;;10090796;23;20049;-86
2023/05/04 04:55:56;;;;;;;26.80;12.93;;;;;;;;;;10090303;23;20019;-87
2023/05/04 04:59:59;;;;;;;25.17;13.75;;;;;;;;;;10090318;23;20018;-87
2023/05/04 05:04:02;;;;;;;15.90;9.27;;;;;;;;;;10089907;23;20597;-87
2023/05/04 05:08:05;;;;;;;12.32;7.13;;;;;;;;;;10090486;23;20474;-86
2023/05/04 05:12:10;;;;;;;21.60;13.73;;;;;;;;;;10090424;23;20026;-87
2023/05/04 05:16:13;;;;;;;11.65;7.50;;;;;;;;;;10089975;23;20078;-88
2023/05/04 05:20:16;;;;;;;11.57;7.25;;;;;;;;;;10088554;23;20047;-89
2023/05/04 05:24:19;;;;;;;9.73;5.70;;;;;;;;;;10088383;23;20335;-88
2023/05/04 05:28:24;;;;;;;10.05;6.15;;;;;;;;;;10091273;23;20018;-89
2023/05/04 05:32:28;;;;;;;8.88;4.97;;;;;;;;;;10109613;23;20049;-89
2023/05/04 05:36:32;;;;;;;8.55;4.00;;;;;;;;;;10093264;23;20022;-88
2023/05/04 05:40:36;;;;;;;6.57;4.32;;;;;;;;;;10092901;23;20443;-88
2023/05/04 05:44:42;;;;;;;6.95;4.00;;;;;;;;;;10090510;23;20457;-88
2023/05/04 05:48:46;;;;;;;9.05;4.75;;;;;;;;;;10108901;23;20431;-89
2023/05/04 05:52:49;;;;;;;6.40;3.67;;;;;;;;;;10092508;23;20069;-88
2023/05/04 05:56:52;;;;;;;7.68;4.10;;;;;;;;;;10092526;23;20040;-89
2023/05/04 06:00:59;;;;;;;5.65;3.65;;;;;;;;;;10091158;23;20033;-90
2023/05/04 06:05:02;;;;;;;7.15;4.10;;;;;;;;;;10067166;23;20022;-89
2023/05/04 06:09:05;;;;;;;4.75;3.20;;;;;;;;;;10093890;23;20609;-90
2023/05/04 06:13:08;;;;;;;6.25;3.38;;;;;;;;;;10092567;23;20022;-90
2023/05/04 06:17:13;;;;;;;5.85;2.55;;;;;;;;;;10093036;23;20020;-89
2023/05/04 06:21:16;;;;;;;3.42;2.40;;;;;;;;;;10089520;23;20437;-85
2023/05/04 06:25:19;;;;;;;4.38;2.50;;;;;;;;;;10092341;23;20106;-86
2023/05/04 06:29:22;;;;;;;4.07;2.50;;;;;;;;;;10091645;23;20022;-88
2023/05/04 06:33:26;;;;;;;4.03;2.17;;;;;;;;;;10091696;23;20345;-86
2023/05/04 06:37:29;;;;;;;2.60;1.80;;;;;;;;;;10091633;23;20478;-88
2023/05/04 06:41:32;;;;;;;2.47;1.88;;;;;;;;;;10091099;23;20583;-86
2023/05/04 06:45:36;;;;;;;3.30;1.90;;;;;;;;;;10091404;23;20028;-88
2023/05/04 06:49:41;;;;;;;3.90;2.03;;;;;;;;;;10091355;23;20033;-88
2023/05/04 06:53:46;;;;;;;5.78;3.22;;;;;;;;;;10091560;23;20096;-88
2023/05/04 06:57:48;;;;;;;2.00;1.60;;;;;;;;;;10065967;23;20619;-89
2023/05/04 07:01:51;;;;;;;2.47;1.67;;;;;;;;;;10091206;23;20456;-88
2023/05/04 07:05:55;;;;;;;3.58;1.90;;;;;;;;;;10091145;23;20022;-86
2023/05/04 07:09:58;;;;;;;3.25;1.80;;;;;;;;;;10091686;23;20102;-90
2023/05/04 07:14:01;;;;;;;3.13;1.70;;;;;;;;;;10093633;23;20135;-89
2023/05/04 07:18:04;;;;;;;2.63;1.80;;;;;;;;;;10091150;23;20325;-89
2023/05/04 07:22:09;;;;;;;4.70;2.30;;;;;;;;;;10091990;23;20026;-90
2023/05/04 07:26:12;;;;;;;3.58;1.73;;;;;;;;;;10091672;23;20029;-89
2023/05/04 07:30:15;;;;;;;3.95;1.80;;;;;;;;;;10091680;23;20022;-91
2023/05/04 07:34:18;;;;;;;4.22;1.65;;;;;;;;;;10091904;23;20504;-91
2023/05/04 07:38:23;;;;;;;2.80;1.50;;;;;;;;;;10091184;23;20018;-90
2023/05/04 07:42:26;;;;;;;3.47;1.40;;;;;;;;;;10090867;23;20026;-88
2023/05/04 07:46:29;;;;;;;3.67;2.00;;;;;;;;;;10089774;23;20026;-86
2023/05/04 07:50:33;;;;;;;2.85;1.70;;;;;;;;;;10090392;23;20022;-89
2023/05/04 07:54:38;;;;;;;45.40;34.97;;;;;;;;;;10089420;23;20022;-87
2023/05/04 07:58:41;;;;;;;25.88;17.63;;;;;;;;;;10091834;23;20410;-86
2023/05/04 08:02:44;;;;;;;1.77;1.55;;;;;;;;;;10086844;23;20030;-87
2023/05/04 08:06:48;;;;;;;4.00;1.95;;;;;;;;;;10087028;23;20750;-86
2023/05/04 08:10:53;;;;;;;2.63;1.67;;;;;;;;;;10086196;23;20090;-87
2023/05/04 08:14:56;;;;;;;2.88;1.80;;;;;;;;;;10087198;23;20057;-87
2023/05/04 08:19:00;;;;;;;3.33;1.92;;;;;;;;;;10064361;23;20023;-87
2023/05/04 08:23:03;;;;;;;2.50;1.42;;;;;;;;;;10090348;23;20019;-87
2023/05/04 08:27:08;;;;;;;3.33;2.00;;;;;;;;;;10089735;23;20028;-86
2023/05/04 08:31:11;;;;;;;2.70;1.58;;;;;;;;;;10089826;23;20018;-88
2023/05/04 08:35:14;;;;;;;4.18;1.77;;;;;;;;;;10089781;23;20102;-87
2023/05/04 08:39:18;;;;;;;4.38;1.45;;;;;;;;;;10089323;23;20019;-87
2023/05/04 08:43:23;;;;;;;3.15;1.80;;;;;;;;;;10089119;23;20025;-87
2023/05/04 08:47:27;;;;;;;4.55;2.20;;;;;;;;;;10092146;23;20102;-87
2023/05/04 08:51:33;;;;;;;2.47;1.67;;;;;;;;;;10089952;23;20046;-86
2023/05/04 08:55:37;;;;;;;5.05;2.35;;;;;;;;;;10105478;23;20098;-87
2023/05/04 08:59:43;;;;;;;2.85;1.80;;;;;;;;;;10090291;23;20506;-87
2023/05/04 09:03:47;;;;;;;1.83;1.40;;;;;;;;;;10095499;23;20340;-87
2023/05/04 09:07:51;;;;;;;2.15;1.67;;;;;;;;;;10092697;23;20025;-87
2023/05/04 09:11:54;;;;;;;2.97;1.60;;;;;;;;;;10093369;23;20037;-87
2023/05/04 09:15:59;;;;;;;64.28;34.67;;;;;;;;;;10095301;23;20436;-87
2023/05/04 09:20:03;;;;;;;3.53;2.33;;;;;;;;;;10093059;23;20045;-87
2023/05/04 09:24:07;;;;;;;3.08;1.90;;;;;;;;;;10093035;23;20074;-87
2023/05/04 09:28:10;;;;;;;2.00;1.60;;;;;;;;;;10092926;23;20048;-87
2023/05/04 09:32:14;;;;;;;5.10;1.80;;;;;;;;;;10093266;23;20061;-87
2023/05/04 09:36:19;;;;;;;3.22;1.60;;;;;;;;;;10093484;23;20481;-87
2023/05/04 09:40:31;;;;;;;2.35;1.63;;;;;;;;;;10108720;23;20329;-86
2023/05/04 09:44:34;;;;;;;4.10;1.70;;;;;;;;;;10109066;23;20435;-88
2023/05/04 09:48:38;;;;;;;3.22;1.90;;;;;;;;;;10090742;23;20336;-88
2023/05/04 09:52:42;;;;;;;4.10;2.13;;;;;;;;;;10092446;23;20026;-88
2023/05/04 09:56:49;;;;;;;10.02;2.33;;;;;;;;;;10092440;23;20103;-88
2023/05/04 10:00:53;;;;;;;3.90;2.40;;;;;;;;;;10106137;23;20018;-88
2023/05/04 10:04:58;;;;;;;3.97;1.90;;;;;;;;;;10108253;23;20077;-88
2023/05/04 10:09:02;;;;;;;3.10;1.75;;;;;;;;;;10065272;23;20094;-88
2023/05/04 10:13:05;;;;;;;3.63;1.90;;;;;;;;;;10088313;23;20526;-88
2023/05/04 10:17:24;;;;;;;3.45;1.90;;;;;;;;;;10088907;23;20026;-88
2023/05/04 10:21:38;;;;;;;5.50;2.67;;;;;;;;;;10105354;23;20018;-87
2023/05/04 10:26:04;;;;;;;3.35;2.00;;;;;;;;;;10105010;23;20050;-87
2023/05/04 10:30:08;;;;;;;5.15;1.88;;;;;;;;;;10107889;23;20101;-88
2023/05/04 10:34:12;;;;;;;2.50;1.90;;;;;;;;;;10091722;23;20026;-86
2023/05/04 10:38:16;;;;;;;4.72;3.25;;;;;;;;;;10091350;23;20018;-88
2023/05/04 10:42:20;;;;;;;3.00;1.85;;;;;;;;;;10091764;23;20018;-87
2023/05/04 10:46:24;;;;;;;5.07;2.20;;;;;;;;;;10091402;23;20046;-88
2023/05/04 10:50:27;;;;;;;4.15;1.92;;;;;;;;;;10091933;23;20321;-89
2023/05/04 10:54:31;;;;;;;1.65;1.55;;;;;;;;;;10092160;23;20018;-90
2023/05/04 10:58:34;;;;;;;3.90;1.80;;;;;;;;;;10091027;23;20023;-90
2023/05/04 11:02:39;;;;;;;3.13;2.13;;;;;;;;;;10088462;23;20109;-90
2023/05/04 11:06:43;;;;;;;10.23;4.53;;;;;;;;;;10091199;23;20029;-89
2023/05/04 11:10:49;;;;;;;3.35;1.95;;;;;;;;;;10066920;23;20026;-94
2023/05/04 11:15:03;;;;;;;6.05;1.95;;;;;;;;;;10092715;23;20030;-92
2023/05/04 11:19:11;;;;;;;3.85;1.98;;;;;;;;;;10107383;23;20018;-90
2023/05/04 11:23:16;;;;;;;3.70;2.28;;;;;;;;;;10091630;23;20045;-90
2023/05/04 11:27:24;;;;;;;3.85;1.88;;;;;;;;;;10107410;23;20049;-91
2023/05/04 11:31:28;;;;;;;3.85;2.13;;;;;;;;;;10107644;23;20022;-93
2023/05/04 11:35:31;;;;;;;4.05;2.00;;;;;;;;;;10093094;23;20316;-91
2023/05/04 11:39:34;;;;;;;3.28;1.90;;;;;;;;;;10094809;23;20033;-92
2023/05/04 11:43:40;;;;;;;4.05;2.13;;;;;;;;;;10092773;23;20790;-92
2023/05/04 11:47:44;;;;;;;4.03;2.08;;;;;;;;;;10108195;23;20022;-91
2023/05/04 11:51:47;;;;;;;3.80;2.10;;;;;;;;;;10090450;23;20025;-91
2023/05/04 11:55:53;;;;;;;3.42;1.83;;;;;;;;;;10090742;23;20019;-90
2023/05/04 11:59:57;;;;;;;2.95;2.05;;;;;;;;;;10106517;23;20085;-90
2023/05/04 12:04:00;;;;;;;3.92;2.33;;;;;;;;;;10090677;23;20030;-92
2023/05/04 12:08:06;;;;;;;4.13;1.92;;;;;;;;;;10091642;23;20028;-90
2023/05/04 12:12:09;;;;;;;3.70;2.28;;;;;;;;;;10092543;23;20375;-93
2023/05/04 12:16:15;;;;;;;2.70;1.75;;;;;;;;;;10090394;23;20077;-89
2023/05/04 12:20:24;;;;;;;4.88;2.00;;;;;;;;;;10100159;23;20050;-89
2023/05/04 12:24:27;;;;;;;5.05;2.60;;;;;;;;;;10091586;23;20026;-89
2023/05/04 12:28:30;;;;;;;4.75;2.13;;;;;;;;;;10084872;23;20022;-90
2023/05/04 12:32:35;;;;;;;3.20;2.00;;;;;;;;;;10084640;23;20494;-89
2023/05/04 12:36:40;;;;;;;3.28;2.47;;;;;;;;;;10083916;23;20471;-90
2023/05/04 12:40:44;;;;;;;5.63;2.60;;;;;;;;;;10100925;23;20022;-88
2023/05/04 12:44:47;;;;;;;3.38;2.28;;;;;;;;;;10085208;23;20022;-90
2023/05/04 12:48:51;;;;;;;4.15;2.00;;;;;;;;;;10083590;23;20055;-88
2023/05/04 12:52:54;;;;;;;3.35;1.90;;;;;;;;;;10083815;23;20023;-89
2023/05/04 12:56:58;;;;;;;5.70;2.08;;;;;;;;;;10085037;23;20032;-89
2023/05/04 13:01:01;;;;;;;8.55;2.20;;;;;;;;;;10083569;23;20054;-89
2023/05/04 13:05:06;;;;;;;4.72;2.65;;;;;;;;;;10085636;23;20042;-91
2023/05/04 13:09:09;;;;;;;3.80;2.38;;;;;;;;;;10103048;23;20046;-91
2023/05/04 13:13:14;;;;;;;3.58;2.20;;;;;;;;;;10086315;23;20025;-92
2023/05/04 13:17:19;;;;;;;2.58;1.90;;;;;;;;;;10087350;23;20022;-94
2023/05/04 13:21:23;;;;;;;4.70;2.30;;;;;;;;;;10088117;23;20368;-94
2023/05/04 13:25:27;;;;;;;3.95;2.00;;;;;;;;;;10087416;23;20077;-88
2023/05/04 13:29:30;;;;;;;5.97;1.95;;;;;;;;;;10084487;23;20023;-89
2023/05/04 13:33:33;;;;;;;4.00;2.30;;;;;;;;;;10084529;23;20556;-87
2023/05/04 13:37:38;;;;;;;3.85;2.42;;;;;;;;;;10085567;23;20026;-87
2023/05/04 13:41:44;;;;;;;3.17;2.05;;;;;;;;;;10102782;23;20053;-91
2023/05/04 13:45:48;;;;;;;4.22;2.20;;;;;;;;;;10105515;23;20022;-90
2023/05/04 13:49:51;;;;;;;3.10;2.00;;;;;;;;;;10090324;23;20462;-89
2023/05/04 13:53:56;;;;;;;4.75;2.30;;;;;;;;;;10087245;23;20027;-88
2023/05/04 13:57:59;;;;;;;3.97;2.40;;;;;;;;;;10085586;23;20019;-91
2023/05/04 14:02:02;;;;;;;3.88;2.10;;;;;;;;;;10086944;23;20805;-89
2023/05/04 14:06:06;;;;;;;2.88;2.05;;;;;;;;;;10086075;23;20037;-88
2023/05/04 14:10:11;;;;;;;3.47;1.95;;;;;;;;;;10061789;23;20058;-88
2023/05/04 14:14:14;;;;;;;4.68;2.40;;;;;;;;;;10103551;23;20061;-89
2023/05/04 14:18:17;;;;;;;4.03;2.22;;;;;;;;;;10087369;23;20074;-89
2023/05/04 14:22:21;;;;;;;3.63;2.10;;;;;;;;;;10087136;23;20024;-90
2023/05/04 14:26:25;;;;;;;3.53;2.03;;;;;;;;;;10086529;23;20494;-89
2023/05/04 14:30:28;;;;;;;3.60;2.08;;;;;;;;;;10088507;23;20018;-88
2023/05/04 14:34:32;;;;;;;2.97;2.10;;;;;;;;;;10087767;23;20431;-89
2023/05/04 14:38:35;;;;;;;6.10;2.42;;;;;;;;;;10087318;23;20027;-88
2023/05/04 14:42:39;;;;;;;4.60;2.25;;;;;;;;;;10084093;23;20022;-89
2023/05/04 14:46:42;;;;;;;4.60;2.50;;;;;;;;;;10082992;23;20022;-87
2023/05/04 14:50:45;;;;;;;4.47;2.30;;;;;;;;;;10086107;23;20050;-88
2023/05/04 14:54:49;;;;;;;2.90;2.10;;;;;;;;;;10099737;23;20474;-90
2023/05/04 15:03:20;;;;;;;4.20;2.13;;;;;;;;;;10092591;23;20134;-90
2023/05/04 15:07:23;;;;;;;5.93;1.83;;;;;;;;;;10110468;23;20022;-89
2023/05/04 15:11:29;;;;;;;4.35;2.30;;;;;;;;;;10089712;23;20052;-90
2023/05/04 15:15:33;;;;;;;3.30;2.17;;;;;;;;;;10065060;23;20037;-89
2023/05/04 15:19:37;;;;;;;4.18;2.30;;;;;;;;;;10088190;23;20018;-90
2023/05/04 15:23:41;;;;;;;5.75;2.08;;;;;;;;;;10087952;23;20105;-91
2023/05/04 15:27:44;;;;;;;6.25;1.92;;;;;;;;;;10090701;23;20047;-90
2023/05/04 15:31:48;;;;;;;4.05;1.90;;;;;;;;;;10092622;23;20093;-89
2023/05/04 15:35:51;;;;;;;3.75;2.15;;;;;;;;;;10093694;23;20029;-90
2023/05/04 15:39:55;;;;;;;6.22;2.10;;;;;;;;;;10089010;23;20105;-91
2023/05/04 15:44:01;;;;;;;5.32;2.00;;;;;;;;;;10091677;23;20041;-90
2023/05/04 15:48:05;;;;;;;4.47;2.10;;;;;;;;;;10107918;23;20026;-90
2023/05/04 15:52:11;;;;;;;3.10;1.95;;;;;;;;;;10090850;23;20053;-90
2023/05/04 15:56:15;;;;;;;3.30;1.95;;;;;;;;;;10107896;23;20329;-90
2023/05/04 16:00:19;;;;;;;3.25;1.77;;;;;;;;;;10089732;23;20023;-90
2023/05/04 16:04:24;;;;;;;2.88;1.90;;;;;;;;;;10091334;23;20482;-91
2023/05/04 16:08:27;;;;;;;7.32;4.15;;;;;;;;;;10091614;23;20022;-90
2023/05/04 16:12:30;;;;;;;4.78;2.30;;;;;;;;;;10093911;23;20068;-91
2023/05/04 16:16:33;;;;;;;4.75;3.05;;;;;;;;;;10092419;23;20034;-89
2023/05/04 16:20:38;;;;;;;9.27;5.47;;;;;;;;;;10088311;23;20081;-90
2023/05/04 16:24:41;;;;;;;10.93;6.95;;;;;;;;;;10072051;23;20355;-90
2023/05/04 16:28:44;;;;;;;13.50;8.48;;;;;;;;;;10091959;23;20050;-89
2023/05/04 16:32:47;;;;;;;4.65;2.10;;;;;;;;;;10095744;23;20018;-91
2023/05/04 16:36:54;;;;;;;3.33;1.92;;;;;;;;;;10069980;23;20153;-88
2023/05/04 16:40:57;;;;;;;4.70;2.15;;;;;;;;;;10111120;23;20097;-90
2023/05/04 16:45:00;;;;;;;6.03;3.35;;;;;;;;;;10092573;23;20112;-90
2023/05/04 16:49:02;;;;;;;7.30;4.80;;;;;;;;;;10090097;23;20516;-90
2023/05/04 16:53:07;;;;;;;3.17;2.22;;;;;;;;;;10087587;23;20446;-91
2023/05/04 16:57:10;;;;;;;4.10;2.30;;;;;;;;;;10086002;23;20077;-90
2023/05/04 17:01:13;;;;;;;6.13;3.78;;;;;;;;;;10094251;23;20439;-90
2023/05/04 17:05:18;;;;;;;2.95;2.15;;;;;;;;;;10111348;23;20026;-89
2023/05/04 17:09:22;;;;;;;5.20;2.55;;;;;;;;;;10088748;23;20585;-90
2023/05/04 17:13:25;;;;;;;3.10;2.00;;;;;;;;;;10086223;23;20758;-90
2023/05/04 17:17:28;;;;;;;13.35;8.45;;;;;;;;;;10086925;23;20019;-90
2023/05/04 17:21:31;;;;;;;5.53;3.53;;;;;;;;;;10088144;23;20033;-90
2023/05/04 17:25:36;;;;;;;4.10;2.42;;;;;;;;;;10062709;23;20029;-89
2023/05/04 17:29:39;;;;;;;5.20;3.40;;;;;;;;;;10087849;23;20474;-88
2023/05/04 17:33:42;;;;;;;53.25;34.10;;;;;;;;;;10089402;23;20177;-89
2023/05/04 17:37:45;;;;;;;21.15;8.93;;;;;;;;;;10092485;23;20090;-89
2023/05/04 17:41:50;;;;;;;15.48;8.60;;;;;;;;;;10093878;23;20042;-88
2023/05/04 17:45:54;;;;;;;4.78;3.10;;;;;;;;;;10095190;23;20090;-88
2023/05/04 17:49:57;;;;;;;7.80;4.60;;;;;;;;;;10071333;23;20077;-88
2023/05/04 17:54:00;;;;;;;6.88;4.10;;;;;;;;;;10093642;23;20030;-88
2023/05/04 17:58:05;;;;;;;8.38;4.45;;;;;;;;;;10092817;23;20046;-88
2023/05/04 18:02:08;;;;;;;6.82;3.75;;;;;;;;;;10103475;23;20026;-90
2023/05/04 18:06:12;;;;;;;5.60;2.60;;;;;;;;;;10094622;23;20029;-88
2023/05/04 18:10:14;;;;;;;5.75;2.65;;;;;;;;;;10068743;23;20058;-88
2023/05/04 18:14:24;;;;;;;5.80;2.88;;;;;;;;;;10094261;23;20023;-88
2023/05/04 18:18:27;;;;;;;5.22;2.70;;;;;;;;;;10069053;23;20030;-88
2023/05/04 18:22:30;;;;;;;4.18;2.67;;;;;;;;;;10070088;23;20030;-88
2023/05/04 18:26:36;;;;;;;4.00;2.65;;;;;;;;;;10094879;23;20018;-89
2023/05/04 18:30:43;;;;;;;4.80;2.63;;;;;;;;;;10095146;23;20025;-89
2023/05/04 18:34:50;;;;;;;11.55;5.72;;;;;;;;;;10110517;23;20360;-89
2023/05/04 18:38:53;;;;;;;8.15;4.10;;;;;;;;;;10112045;23;20019;-89
2023/05/04 18:42:58;;;;;;;4.82;2.90;;;;;;;;;;10104835;23;20457;-88
2023/05/04 18:47:06;;;;;;;4.32;2.55;;;;;;;;;;10086497;23;20053;-88
2023/05/04 18:51:11;;;;;;;3.83;2.58;;;;;;;;;;10125130;23;20025;-88
2023/05/04 18:55:17;;;;;;;6.40;2.75;;;;;;;;;;10107099;23;20101;-88
2023/05/04 18:59:38;;;;;;;4.00;2.72;;;;;;;;;;10075160;23;20018;-90
2023/05/04 19:03:49;;;;;;;4.38;2.67;;;;;;;;;;10095791;23;20027;-89
2023/05/04 19:07:53;;;;;;;6.35;2.65;;;;;;;;;;10071824;23;20094;-89
2023/05/04 19:11:57;;;;;;;4.30;2.65;;;;;;;;;;10070314;23;20085;-89
2023/05/04 19:16:01;;;;;;;7.43;2.90;;;;;;;;;;10096103;23;20022;-90
2023/05/04 19:20:21;;;;;;;3.97;2.85;;;;;;;;;;10096590;23;20102;-89
2023/05/04 19:24:36;;;;;;;3.72;2.63;;;;;;;;;;10111760;23;20462;-88
2023/05/04 19:28:42;;;;;;;4.53;2.92;;;;;;;;;;10111044;23;20162;-88
2023/05/04 19:32:51;;;;;;;6.18;3.88;;;;;;;;;;10069586;23;20026;-89
2023/05/04 19:36:58;;;;;;;4.47;2.92;;;;;;;;;;10094754;23;20709;-89
2023/05/04 19:41:01;;;;;;;5.68;3.20;;;;;;;;;;10112185;23;20344;-89
2023/05/04 19:45:15;;;;;;;7.60;3.10;;;;;;;;;;10095201;23;20025;-89
2023/05/04 19:49:23;;;;;;;4.43;2.90;;;;;;;;;;10095519;23;20507;-88
2023/05/04 19:53:30;;;;;;;5.40;2.92;;;;;;;;;;10094452;23;20026;-88
2023/05/04 19:57:33;;;;;;;12.80;6.63;;;;;;;;;;10110593;23;20023;-90
2023/05/04 20:01:36;;;;;;;11.65;4.65;;;;;;;;;;10096314;23;20026;-88
2023/05/04 20:05:39;;;;;;;17.83;10.52;;;;;;;;;;10095458;23;20094;-89
2023/05/04 20:09:53;;;;;;;6.18;4.03;;;;;;;;;;10096125;23;20018;-88
2023/05/04 20:13:56;;;;;;;6.75;3.70;;;;;;;;;;10099492;23;20348;-88
2023/05/04 20:17:59;;;;;;;12.02;5.63;;;;;;;;;;10098661;23;20775;-87
2023/05/04 20:22:02;;;;;;;10.77;5.70;;;;;;;;;;10097622;23;20470;-87
2023/05/04 20:26:06;;;;;;;8.88;4.47;;;;;;;;;;10074916;23;20019;-88
2023/05/04 20:30:10;;;;;;;8.95;5.55;;;;;;;;;;10094573;23;20101;-87
2023/05/04 20:34:13;;;;;;;8.38;3.88;;;;;;;;;;10095671;23;20041;-88
2023/05/04 20:38:16;;;;;;;9.20;4.10;;;;;;;;;;10095042;23;20325;-87
2023/05/04 20:42:21;;;;;;;7.00;4.00;;;;;;;;;;10094219;23;20019;-88
2023/05/04 20:46:24;;;;;;;5.47;3.63;;;;;;;;;;10095313;23;20020;-88
2023/05/04 20:50:29;;;;;;;9.80;4.10;;;;;;;;;;10095593;23;20567;-88
2023/05/04 20:54:33;;;;;;;8.15;4.82;;;;;;;;;;10093995;23;20022;-88
2023/05/04 20:58:38;;;;;;;7.97;4.15;;;;;;;;;;10095869;23;20055;-88
2023/05/04 21:02:41;;;;;;;8.77;4.30;;;;;;;;;;10095906;23;20352;-87
2023/05/04 21:06:44;;;;;;;6.90;4.03;;;;;;;;;;10096119;23;20495;-88
2023/05/04 21:10:47;;;;;;;7.75;4.55;;;;;;;;;;10095342;23;20022;-88
2023/05/04 21:14:52;;;;;;;10.23;4.50;;;;;;;;;;10096224;23;20046;-89
2023/05/04 21:18:55;;;;;;;8.15;4.55;;;;;;;;;;10094749;23;20411;-88
2023/05/04 21:22:58;;;;;;;7.28;4.40;;;;;;;;;;10095979;23;20019;-88
2023/05/04 21:27:01;;;;;;;9.60;4.40;;;;;;;;;;10095285;23;20123;-89
2023/05/04 21:31:15;;;;;;;9.40;4.53;;;;;;;;;;10094062;23;20018;-88
2023/05/04 21:35:21;;;;;;;7.60;4.57;;;;;;;;;;10094286;23;20093;-88
2023/05/04 21:39:34;;;;;;;8.75;4.45;;;;;;;;;;10094983;23;20022;-88
2023/05/04 21:43:37;;;;;;;8.60;4.47;;;;;;;;;;10093073;23;20093;-88
2023/05/04 21:47:52;;;;;;;10.93;4.90;;;;;;;;;;10068248;23;20410;-88
2023/05/04 21:52:01;;;;;;;9.80;5.40;;;;;;;;;;10094353;23;20082;-88
2023/05/04 21:56:09;;;;;;;8.65;5.10;;;;;;;;;;10069491;23;20460;-88
2023/05/04 22:00:16;;;;;;;9.90;5.18;;;;;;;;;;10109696;23;20026;-88
2023/05/04 22:04:29;;;;;;;9.23;4.95;;;;;;;;;;10093319;23;20489;-87
2023/05/04 22:08:33;;;;;;;9.73;4.78;;;;;;;;;;10094965;23;20019;-90
2023/05/04 22:12:35;;;;;;;8.45;5.18;;;;;;;;;;10072584;23;20033;-88
2023/05/04 22:16:38;;;;;;;7.53;4.75;;;;;;;;;;10099650;23;20014;-88
2023/05/04 22:20:43;;;;;;;8.63;4.78;;;;;;;;;;10073694;23;20105;-88
2023/05/04 22:24:47;;;;;;;8.50;4.60;;;;;;;;;;10099306;23;20097;-89
2023/05/04 22:28:51;;;;;;;9.30;4.60;;;;;;;;;;10073209;23;20026;-89
2023/05/04 22:32:55;;;;;;;10.00;4.75;;;;;;;;;;10097470;23;20025;-87
2023/05/04 22:37:00;;;;;;;12.25;5.05;;;;;;;;;;10097953;23;20046;-88
2023/05/04 22:41:03;;;;;;;9.40;4.97;;;;;;;;;;10097511;23;20447;-88
2023/05/04 22:45:06;;;;;;;9.30;4.63;;;;;;;;;;10070703;23;20027;-88
2023/05/04 22:49:22;;;;;;;8.25;4.22;;;;;;;;;;10097168;23;20023;-87
2023/05/04 22:53:26;;;;;;;9.77;5.05;;;;;;;;;;10112303;23;20026;-88
2023/05/04 22:57:29;;;;;;;8.23;4.80;;;;;;;;;;10096893;23;20032;-88
2023/05/04 23:01:33;;;;;;;8.93;4.95;;;;;;;;;;10097616;23;20455;-88
2023/05/04 23:05:36;;;;;;;10.10;5.47;;;;;;;;;;10071493;23;20027;-88
2023/05/04 23:09:44;;;;;;;9.05;4.88;;;;;;;;;;10097850;23;20090;-88
2023/05/04 23:13:51;;;;;;;9.38;5.38;;;;;;;;;;10112919;23;20026;-88
2023/05/04 23:18:02;;;;;;;10.93;5.32;;;;;;;;;;10111801;23;20090;-89
2023/05/04 23:22:05;;;;;;;8.37;5.20;;;;;;;;;;10111082;23;20046;-88
2023/05/04 23:26:09;;;;;;;10.10;5.35;;;;;;;;;;10095657;23;20052;-88
2023/05/04 23:30:13;;;;;;;9.85;5.63;;;;;;;;;;10094719;23;20402;-88
2023/05/04 23:34:16;;;;;;;10.35;5.18;;;;;;;;;;10094768;23;20049;-88
2023/05/04 23:38:19;;;;;;;10.90;5.40;;;;;;;;;;10095425;23;20022;-88
2023/05/04 23:42:26;;;;;;;8.00;4.78;;;;;;;;;;10095307;23;20060;-88
2023/05/04 23:46:32;;;;;;;12.82;5.30;;;;;;;;;;10111126;23;20029;-88
2023/05/04 23:50:35;;;;;;;9.18;5.13;;;;;;;;;;10069004;23;20086;-88
2023/05/04 23:54:38;;;;;;;10.40;5.43;;;;;;;;;;10094085;23;20050;-88
2023/05/04 23:58:43;;;;;;;9.10;5.38;;;;;;;;;;10068293;23;20349;-88
